Time;durP1;ratioP1;P1;durP2;ratioP2;P2;SDS_P1;SDS_P2;PMS_P1;PMS_P2;Temp;Humidity;BMP_temperature;BMP_pressure;BME280_temperature;BME280_humidity;BME280_pressure;Samples;Min_cycle;Max_cycle;Signal;HPM_P1;HPM_P2
2021/10/06 00:00:58;;;;;;;23.73;7.10;;;435.30;1638.40;;;;;;6187260;23;20016;-76
2021/10/06 00:03:24;;;;;;;26.23;6.60;;;435.30;1638.40;;;;;;6213933;23;20007;-76
2021/10/06 00:05:50;;;;;;;20.75;5.38;;;435.30;1638.40;;;;;;6187440;23;20028;-84
2021/10/06 00:08:15;;;;;;;17.90;6.65;;;435.30;1638.40;;;;;;6187816;23;20015;-79
2021/10/06 00:10:41;;;;;;;21.00;6.40;;;435.30;1638.40;;;;;;6187563;23;20004;-78
2021/10/06 00:13:12;;;;;;;20.52;6.65;;;435.20;1638.40;;;;;;6187586;23;20001;-80
2021/10/06 00:15:38;;;;;;;24.60;7.13;;;435.30;1638.40;;;;;;6187066;23;20005;-76
2021/10/06 00:18:04;;;;;;;24.13;6.72;;;435.30;1638.40;;;;;;6186238;23;20063;-76
2021/10/06 00:20:30;;;;;;;21.95;5.97;;;435.30;1638.40;;;;;;6213006;23;20008;-76
2021/10/06 00:22:56;;;;;;;15.60;5.03;;;435.30;1638.40;;;;;;6212883;23;20345;-77
2021/10/06 00:25:22;;;;;;;23.20;6.40;;;435.30;1638.40;;;;;;6185716;23;20008;-78
2021/10/06 00:27:49;;;;;;;18.17;6.65;;;435.30;1638.40;;;;;;6213209;23;20001;-76
2021/10/06 00:30:18;;;;;;;21.65;6.13;;;435.20;1638.40;;;;;;6187071;23;20012;-76
2021/10/06 00:32:44;;;;;;;11.23;5.85;;;435.20;1638.40;;;;;;6213681;23;20011;-76
2021/10/06 00:35:10;;;;;;;18.52;5.97;;;410.50;1638.40;;;;;;6186723;23;20011;-80
2021/10/06 00:37:36;;;;;;;25.55;5.90;;;435.30;1638.40;;;;;;6213341;23;20076;-77
2021/10/06 00:40:06;;;;;;;20.63;6.32;;;435.20;1664.00;;;;;;6186482;23;20032;-77
2021/10/06 00:42:33;;;;;;;20.45;6.65;;;435.20;1664.00;;;;;;6213006;23;20012;-77
2021/10/06 00:44:59;;;;;;;26.85;7.78;;;410.50;1664.00;;;;;;6213442;23;20054;-78
2021/10/06 00:47:25;;;;;;;16.45;7.40;;;410.50;1664.00;;;;;;6214114;23;20326;-78
2021/10/06 00:49:51;;;;;;;18.52;7.85;;;410.50;1689.60;;;;;;6187292;23;20000;-82
2021/10/06 00:52:17;;;;;;;23.38;9.50;;;410.50;1689.60;;;;;;6187550;23;20032;-77
2021/10/06 00:54:44;;;;;;;26.85;13.80;;;410.40;1689.60;;;;;;6213345;23;20012;-77
2021/10/06 00:57:10;;;;;;;22.08;13.15;;;410.40;1715.20;;;;;;6213647;23;20005;-78
2021/10/06 00:59:37;;;;;;;26.50;11.13;;;410.30;1715.20;;;;;;6214022;23;20446;-78
2021/10/06 04:34:31;;;;;;;10.80;4.75;;;384.60;1843.20;;;;;;6222180;22;20090;-78
2021/10/06 04:36:57;;;;;;;15.52;4.88;;;384.40;1868.80;;;;;;6244358;23;20004;-74
2021/10/06 04:39:23;;;;;;;23.50;6.03;;;384.40;1868.80;;;;;;6218019;23;20000;-77
2021/10/06 04:41:49;;;;;;;11.60;4.93;;;384.40;1868.80;;;;;;6244038;23;20328;-75
2021/10/06 04:44:15;;;;;;;15.77;4.95;;;384.40;1868.80;;;;;;6244558;23;20078;-75
2021/10/06 04:46:41;;;;;;;17.23;6.30;;;384.40;1868.80;;;;;;6217799;23;20004;-84
2021/10/06 04:49:06;;;;;;;9.32;4.93;;;384.40;1894.40;;;;;;6218099;23;20000;-79
2021/10/06 04:51:32;;;;;;;17.77;5.53;;;384.40;1894.40;;;;;;6217585;23;20008;-80
2021/10/06 04:53:58;;;;;;;11.30;4.75;;;384.30;1894.40;;;;;;6244298;23;20003;-74
2021/10/06 04:56:24;;;;;;;8.38;4.93;;;384.30;1894.40;;;;;;6217755;23;20087;-79
2021/10/06 04:58:49;;;;;;;15.10;5.00;;;384.30;1894.40;;;;;;6244596;23;20004;-80
2021/10/06 05:01:15;;;;;;;13.07;5.10;;;384.30;1894.40;;;;;;6244436;23;20441;-78
2021/10/06 05:03:41;;;;;;;15.75;5.18;;;384.30;1894.40;;;;;;6244240;23;19996;-76
2021/10/06 05:06:07;;;;;;;10.93;5.53;;;384.30;1894.40;;;;;;6244637;23;20004;-80
2021/10/06 05:08:35;;;;;;;14.45;5.10;;;384.30;1894.40;;;;;;6217150;23;20008;-79
2021/10/06 05:11:01;;;;;;;12.45;5.32;;;384.30;1894.40;;;;;;6244886;23;20008;-76
2021/10/06 05:13:26;;;;;;;14.18;6.03;;;384.30;1894.40;;;;;;6244766;23;20455;-80
2021/10/06 05:15:52;;;;;;;17.63;5.20;;;384.30;1894.40;;;;;;6217589;23;20005;-80
2021/10/06 05:18:18;;;;;;;10.85;4.65;;;384.30;1894.40;;;;;;6217391;23;20000;-79
2021/10/06 05:20:44;;;;;;;12.40;4.75;;;384.20;1894.40;;;;;;6217370;23;20346;-79
2021/10/06 05:23:10;;;;;;;20.08;6.05;;;384.20;1894.40;;;;;;6214023;23;20008;-75
2021/10/06 05:25:35;;;;;;;10.85;4.22;;;384.30;1894.40;;;;;;6244115;23;20000;-75
2021/10/06 05:28:02;;;;;;;16.95;4.80;;;384.20;1894.40;;;;;;6217730;23;20028;-81
2021/10/06 05:30:28;;;;;;;18.60;5.32;;;384.20;1894.40;;;;;;6244213;23;20401;-77
2021/10/06 05:32:53;;;;;;;17.92;4.82;;;384.20;1894.40;;;;;;6244434;23;20079;-76
2021/10/06 05:35:20;;;;;;;15.82;4.78;;;384.30;1894.40;;;;;;6216600;23;20042;-78
2021/10/06 05:37:47;;;;;;;12.32;4.65;;;384.30;1894.40;;;;;;6243084;23;20111;-77
2021/10/06 05:40:15;;;;;;;18.90;5.25;;;384.30;1894.40;;;;;;6217482;23;20008;-74
2021/10/06 05:42:41;;;;;;;13.00;5.35;;;384.30;1894.40;;;;;;6242948;23;20019;-77
2021/10/06 05:45:08;;;;;;;12.65;5.60;;;384.30;1894.40;;;;;;6217408;23;20004;-77
2021/10/06 05:47:33;;;;;;;11.30;4.60;;;384.30;1894.40;;;;;;6244756;23;20004;-76
2021/10/06 05:50:00;;;;;;;23.63;5.25;;;384.30;1868.80;;;;;;6247007;23;20031;-75
2021/10/06 05:52:26;;;;;;;10.10;4.47;;;384.30;1868.80;;;;;;6218702;23;20006;-74
2021/10/06 05:54:52;;;;;;;9.45;4.57;;;384.30;1868.80;;;;;;6246053;23;20023;-75
2021/10/06 05:57:18;;;;;;;15.85;4.60;;;384.30;1868.80;;;;;;6219028;23;20419;-76
2021/10/06 05:59:44;;;;;;;16.08;5.20;;;384.30;1868.80;;;;;;6246165;23;19996;-75
2021/10/06 06:02:10;;;;;;;15.50;4.65;;;384.30;1868.80;;;;;;6245647;23;20018;-74
2021/10/06 06:04:35;;;;;;;14.05;5.78;;;384.30;1868.80;;;;;;6219003;23;20012;-74
2021/10/06 06:07:02;;;;;;;16.50;6.45;;;384.30;1868.80;;;;;;6218966;23;20012;-74
2021/10/06 06:09:28;;;;;;;15.13;5.45;;;384.30;1894.40;;;;;;6245906;23;20000;-79
2021/10/06 06:11:53;;;;;;;23.15;5.72;;;384.30;1868.80;;;;;;6250025;23;20048;-75
2021/10/06 06:14:20;;;;;;;13.68;5.72;;;384.30;1868.80;;;;;;6231923;23;20027;-76
2021/10/06 06:16:46;;;;;;;10.13;4.75;;;384.20;1868.80;;;;;;6258370;23;20000;-77
2021/10/06 06:19:12;;;;;;;15.40;4.40;;;384.20;1894.40;;;;;;6219458;23;20456;-77
2021/10/06 06:21:38;;;;;;;16.48;6.22;;;384.10;1868.80;;;;;;6246289;23;20008;-82
2021/10/06 06:24:04;;;;;;;17.25;5.38;;;384.30;1868.80;;;;;;6246067;23;20513;-79
2021/10/06 06:26:30;;;;;;;19.27;5.72;;;384.10;1868.80;;;;;;6247280;23;20105;-77
2021/10/06 06:28:56;;;;;;;16.85;6.15;;;384.10;1868.80;;;;;;6219486;23;20076;-78
2021/10/06 06:31:21;;;;;;;20.70;6.00;;;384.20;1868.80;;;;;;6246245;23;20050;-79
2021/10/06 06:33:47;;;;;;;13.27;6.00;;;384.20;1868.80;;;;;;6245580;23;20425;-80
2021/10/06 06:36:13;;;;;;;20.70;7.13;;;384.30;1868.80;;;;;;6219056;23;20020;-76
2021/10/06 06:38:39;;;;;;;15.02;6.88;;;384.30;1868.80;;;;;;6245632;23;19996;-76
2021/10/06 06:41:05;;;;;;;22.98;8.98;;;384.10;1868.80;;;;;;6246114;23;20083;-78
2021/10/06 06:43:31;;;;;;;26.63;11.98;;;384.10;1868.80;;;;;;6246574;23;20004;-81
2021/10/06 06:45:57;;;;;;;22.88;11.27;;;384.30;1868.80;;;;;;6245178;23;19992;-84
2021/10/06 06:48:23;;;;;;;24.42;12.02;;;384.10;1868.80;;;;;;6245716;23;20307;-74
2021/10/06 06:50:53;;;;;;;24.75;12.10;;;384.10;1894.40;;;;;;6245439;23;20027;-74
2021/10/06 06:53:20;;;;;;;22.15;11.60;;;384.10;1868.80;;;;;;6245725;23;20000;-81
2021/10/06 06:55:46;;;;;;;25.17;10.27;;;384.10;1894.40;;;;;;6245562;23;20012;-77
2021/10/06 06:58:12;;;;;;;24.50;9.40;;;384.10;1894.40;;;;;;6245833;23;20351;-76
2021/10/06 07:00:37;;;;;;;21.15;8.52;;;384.10;1894.40;;;;;;6245236;23;20012;-76
2021/10/06 07:03:03;;;;;;;27.73;7.25;;;384.10;1894.40;;;;;;6218205;23;20004;-75
2021/10/06 07:05:29;;;;;;;12.65;6.05;;;384.20;1894.40;;;;;;6245313;23;20008;-82
2021/10/06 07:07:55;;;;;;;17.75;6.70;;;384.10;1894.40;;;;;;6218669;23;20062;-75
2021/10/06 07:10:21;;;;;;;25.63;6.57;;;384.10;1894.40;;;;;;6245602;23;20000;-80
2021/10/06 07:12:49;;;;;;;20.85;6.47;;;384.10;1894.40;;;;;;6245331;23;20487;-81
2021/10/06 07:15:15;;;;;;;12.60;6.05;;;384.10;1894.40;;;;;;6219093;23;20008;-75
2021/10/06 07:17:41;;;;;;;14.05;5.70;;;384.10;1894.40;;;;;;6218709;23;20027;-74
2021/10/06 07:20:07;;;;;;;16.60;5.15;;;384.10;1894.40;;;;;;6245378;23;20361;-83
2021/10/06 07:22:33;;;;;;;14.45;5.13;;;384.10;1894.40;;;;;;6218470;23;20122;-76
2021/10/06 07:25:00;;;;;;;17.35;6.13;;;384.10;1894.40;;;;;;6245347;23;20026;-81
2021/10/06 07:27:26;;;;;;;16.13;6.07;;;384.10;1894.40;;;;;;6245315;23;20008;-79
2021/10/06 07:29:52;;;;;;;11.95;6.00;;;384.20;1920.00;;;;;;6218650;23;20007;-77
2021/10/06 07:32:17;;;;;;;15.00;7.25;;;384.20;1894.40;;;;;;6218698;23;20003;-78
2021/10/06 07:34:43;;;;;;;17.25;6.03;;;384.10;1920.00;;;;;;6244879;23;20016;-81
2021/10/06 07:37:09;;;;;;;22.90;6.60;;;384.10;1920.00;;;;;;6245562;23;20008;-80
2021/10/06 07:39:35;;;;;;;10.40;5.30;;;384.20;1920.00;;;;;;6218393;23;20012;-76
2021/10/06 07:42:00;;;;;;;14.48;6.80;;;384.20;1920.00;;;;;;6245087;23;20009;-78
2021/10/06 07:44:26;;;;;;;18.40;6.85;;;384.30;1920.00;;;;;;6245122;23;20004;-75
2021/10/06 07:46:52;;;;;;;17.30;7.35;;;384.30;1920.00;;;;;;6217426;23;20061;-78
2021/10/06 07:49:18;;;;;;;18.67;8.45;;;384.40;1920.00;;;;;;6245141;23;20107;-79
2021/10/06 07:51:44;;;;;;;15.05;6.45;;;384.40;1920.00;;;;;;6245374;23;20000;-74
2021/10/06 07:54:10;;;;;;;16.80;8.25;;;384.40;1920.00;;;;;;6244770;23;20040;-80
2021/10/06 07:56:35;;;;;;;18.98;8.30;;;384.40;1920.00;;;;;;6218956;23;20019;-84
2021/10/06 07:59:01;;;;;;;18.20;11.40;;;384.40;1920.00;;;;;;6218498;23;20393;-84
2021/10/06 08:01:27;;;;;;;22.13;10.80;;;384.40;1920.00;;;;;;6244794;23;20093;-74
2021/10/06 08:03:53;;;;;;;21.88;9.77;;;384.30;1920.00;;;;;;6244983;23;19996;-75
2021/10/06 08:06:19;;;;;;;19.65;8.43;;;384.40;1945.60;;;;;;6217747;23;20081;-84
2021/10/06 08:08:45;;;;;;;32.15;9.65;;;384.40;1920.00;;;;;;6218660;23;20008;-86
2021/10/06 08:11:11;;;;;;;25.65;9.65;;;384.40;1945.60;;;;;;6217648;23;20010;-80
2021/10/06 08:13:36;;;;;;;12.98;6.38;;;384.40;1945.60;;;;;;6245361;23;19997;-79
2021/10/06 08:16:02;;;;;;;21.80;8.82;;;384.40;1945.60;;;;;;6244948;23;20414;-81
2021/10/06 08:18:28;;;;;;;14.68;7.40;;;384.50;1945.60;;;;;;6243267;23;20000;-75
2021/10/06 08:20:55;;;;;;;27.92;6.65;;;384.60;1945.60;;;;;;6217618;23;20010;-81
2021/10/06 08:23:22;;;;;;;11.98;5.25;;;384.60;1945.60;;;;;;6218183;23;20004;-82
2021/10/06 08:25:50;;;;;;;19.08;7.75;;;384.60;1945.60;;;;;;6244918;23;19996;-81
2021/10/06 08:28:17;;;;;;;17.63;6.55;;;384.50;1945.60;;;;;;6244600;23;20038;-75
2021/10/06 08:30:43;;;;;;;29.15;7.88;;;384.40;1945.60;;;;;;6218330;23;20014;-82
2021/10/06 08:33:09;;;;;;;27.48;6.97;;;384.50;1971.20;;;;;;6244899;23;20047;-81
2021/10/06 08:35:36;;;;;;;14.90;5.80;;;384.40;1971.20;;;;;;6218137;23;20028;-81
2021/10/06 08:38:03;;;;;;;32.70;8.05;;;384.40;2022.40;;;;;;6217653;23;20089;-75
2021/10/06 08:40:30;;;;;;;16.95;6.35;;;384.10;2099.20;;;;;;6244462;23;20058;-80
2021/10/06 08:42:56;;;;;;;19.90;5.90;;;359.30;2150.40;;;;;;6244158;23;20007;-82
2021/10/06 08:45:21;;;;;;;15.48;6.32;;;359.30;2150.40;;;;;;6244551;23;20001;-75
2021/10/06 08:47:47;;;;;;;16.48;7.40;;;359.20;2176.00;;;;;;6243806;23;20004;-79
2021/10/06 08:50:17;;;;;;;17.00;8.13;;;359.20;2252.80;;;;;;6243928;23;19997;-81
2021/10/06 08:52:48;;;;;;;20.45;7.05;;;359.10;2304.00;;;;;;6217532;23;20054;-79
2021/10/06 08:55:15;;;;;;;12.20;6.22;;;358.90;2329.60;;;;;;6217983;23;20004;-80
2021/10/06 08:57:42;;;;;;;13.50;7.20;;;358.80;2329.60;;;;;;6245585;23;20426;-81
2021/10/06 09:00:09;;;;;;;17.60;6.38;;;358.70;2329.60;;;;;;6244909;23;20042;-84
2021/10/06 09:02:43;;;;;;;15.75;5.50;;;358.70;2329.60;;;;;;6245184;23;20012;-76
2021/10/06 09:05:11;;;;;;;23.80;6.80;;;358.60;2329.60;;;;;;6244309;23;20004;-75
2021/10/06 09:07:58;;;;;;;15.32;6.97;;;358.50;2329.60;;;;;;6245205;23;20434;-76
2021/10/06 09:10:29;;;;;;;21.33;6.95;;;358.50;2329.60;;;;;;6218136;23;20008;-89
2021/10/06 09:13:02;;;;;;;17.23;7.28;;;358.40;2329.60;;;;;;6244980;23;20085;-81
2021/10/06 09:15:40;;;;;;;19.90;7.85;;;358.40;2329.60;;;;;;6217674;23;20332;-85
2021/10/06 09:18:12;;;;;;;16.50;7.22;;;358.50;2329.60;;;;;;6218152;23;20027;-86
2021/10/06 09:20:38;;;;;;;14.52;7.05;;;358.40;2329.60;;;;;;6218000;23;20024;-81
2021/10/06 09:23:06;;;;;;;23.08;6.90;;;358.40;2329.60;;;;;;6218650;23;20000;-82
2021/10/06 09:25:50;;;;;;;24.65;7.57;;;333.70;2329.60;;;;;;6219535;23;20020;-77
2021/10/06 10:26:29;;;;;;;32.10;8.80;;;359.20;2329.60;;;;;;5109538;27;20388;-76
2021/10/06 10:28:55;;;;;;;18.23;7.35;;;384.90;2329.60;;;;;;5108726;28;20028;-81
2021/10/06 10:31:22;;;;;;;21.25;7.72;;;384.90;2329.60;;;;;;5090010;28;20102;-80
2021/10/06 10:33:53;;;;;;;19.02;6.70;;;384.90;2329.60;;;;;;5089475;28;20023;-77
2021/10/06 10:36:40;;;;;;;29.92;6.63;;;409.70;2355.20;;;;;;5089311;28;20055;-76
2021/10/06 10:39:26;;;;;;;;;;;409.70;2355.20;;;;;;5089677;28;20020;-78
2021/10/06 10:41:57;;;;;;;24.20;7.00;;;409.80;2355.20;;;;;;5088053;28;19909;-80
2021/10/06 10:44:33;;;;;;;19.35;6.80;;;409.90;2355.20;;;;;;5089188;28;20419;-76
2021/10/06 10:47:02;;;;;;;12.88;6.10;;;410.00;2355.20;;;;;;5087748;28;20020;-82
2021/10/06 10:49:55;;;;;;;20.63;6.35;;;410.00;2355.20;;;;;;5087961;28;20043;-77
2021/10/06 10:52:56;;;;;;;15.98;6.20;;;410.20;2304.00;;;;;;5075310;28;20032;-83
2021/10/06 10:55:46;;;;;;;13.57;6.60;;;410.20;2304.00;;;;;;5066639;28;20083;-76
2021/10/06 10:58:34;;;;;;;16.02;5.90;;;410.20;2304.00;;;;;;5049053;28;20486;-76
2021/10/06 11:01:03;;;;;;;27.50;6.20;;;410.20;2278.40;;;;;;5056580;28;20595;-82
2021/10/06 11:03:29;;;;;;;30.25;7.07;;;410.20;2227.20;;;;;;5045190;28;20033;-82
2021/10/06 11:05:58;;;;;;;23.20;5.75;;;410.20;2227.20;;;;;;5042184;28;20152;-82
2021/10/06 11:08:24;;;;;;;18.98;6.20;;;410.20;2227.20;;;;;;5049923;28;20029;-81
2021/10/06 11:11:09;;;;;;;25.33;6.72;;;410.20;2278.40;;;;;;5062785;28;20040;-82
2021/10/06 11:13:35;;;;;;;17.13;5.72;;;410.20;2252.80;;;;;;5053708;28;20498;-81
2021/10/06 11:16:01;;;;;;;21.50;6.38;;;410.20;2252.80;;;;;;5059360;28;20056;-79
2021/10/06 11:18:38;;;;;;;23.13;6.50;;;410.20;2227.20;;;;;;5037831;28;20379;-77
2021/10/06 11:21:06;;;;;;;24.83;7.07;;;410.30;2252.80;;;;;;5066398;28;20029;-83
2021/10/06 11:23:33;;;;;;;20.38;6.15;;;410.40;2201.60;;;;;;5049484;28;20036;-81
2021/10/06 11:26:04;;;;;;;29.02;7.32;;;410.50;2201.60;;;;;;5043498;28;20144;-82
2021/10/06 11:28:31;;;;;;;20.13;7.05;;;435.20;2176.00;;;;;;5046431;28;20037;-77
2021/10/06 11:30:59;;;;;;;30.10;7.80;;;435.30;2201.60;;;;;;5072917;28;20024;-75
2021/10/06 11:33:28;;;;;;;24.95;6.55;;;435.20;2227.20;;;;;;5072576;28;20021;-84
2021/10/06 11:36:20;;;;;;;22.50;5.95;;;435.20;2252.80;;;;;;5074711;28;20032;-84
2021/10/06 11:38:55;;;;;;;32.10;7.68;;;410.50;2304.00;;;;;;5073973;28;20107;-78
2021/10/06 11:41:21;;;;;;;30.20;7.15;;;410.40;2304.00;;;;;;5073848;28;20119;-78
2021/10/06 11:43:54;;;;;;;29.48;8.00;;;410.30;2329.60;;;;;;5074953;28;20438;-79
2021/10/06 11:46:23;;;;;;;25.42;6.78;;;410.30;2355.20;;;;;;5073243;28;20032;-78
2021/10/06 11:48:54;;;;;;;21.38;6.68;;;410.30;2329.60;;;;;;5074753;28;20078;-80
2021/10/06 11:51:21;;;;;;;20.10;6.45;;;410.40;2278.40;;;;;;5074385;28;20501;-79
2021/10/06 11:53:49;;;;;;;34.50;6.75;;;410.50;2278.40;;;;;;5090319;28;20020;-80
2021/10/06 11:56:26;;;;;;;30.63;7.50;;;410.50;2304.00;;;;;;5074571;28;20041;-79
2021/10/06 11:58:52;;;;;;;16.33;5.75;;;410.50;2329.60;;;;;;5074543;28;20029;-79
2021/10/06 12:01:18;;;;;;;21.95;5.78;;;410.50;2304.00;;;;;;5090215;28;20106;-77
2021/10/06 12:03:43;;;;;;;24.13;7.20;;;435.20;2252.80;;;;;;5074243;28;20457;-80
2021/10/06 12:06:11;;;;;;;19.67;6.93;;;435.20;2252.80;;;;;;5074451;28;20020;-86
2021/10/06 12:08:38;;;;;;;19.65;6.43;;;435.20;2252.80;;;;;;5074757;28;20021;-85
2021/10/06 12:11:06;;;;;;;21.58;5.85;;;435.20;2227.20;;;;;;5073667;28;20027;-84
2021/10/06 12:13:40;;;;;;;15.55;4.80;;;435.20;2201.60;;;;;;5073181;28;20453;-84
2021/10/06 12:16:28;;;;;;;21.10;6.20;;;435.30;2176.00;;;;;;5074584;28;20090;-82
2021/10/06 12:19:01;;;;;;;16.00;5.93;;;435.40;2176.00;;;;;;5074514;28;20018;-77
2021/10/06 12:21:29;;;;;;;22.35;5.45;;;435.60;2150.40;;;;;;5073979;28;20040;-76
2021/10/06 12:24:00;;;;;;;29.05;6.07;;;435.60;2099.20;;;;;;5074303;28;20033;-81
2021/10/06 12:26:33;;;;;;;17.70;5.97;;;435.80;2099.20;;;;;;5073793;28;20036;-82
2021/10/06 12:29:03;;;;;;;13.48;5.07;;;435.80;2073.60;;;;;;5072941;28;20819;-81
2021/10/06 12:31:31;;;;;;;22.45;5.78;;;435.80;2048.00;;;;;;5074050;28;20016;-84
2021/10/06 12:34:18;;;;;;;25.65;7.95;;;435.90;2073.60;;;;;;5073869;28;20367;-81
2021/10/06 12:36:55;;;;;;;20.65;6.82;;;435.90;2048.00;;;;;;5074002;28;20111;-82
2021/10/06 12:39:27;;;;;;;25.15;7.28;;;435.90;2022.40;;;;;;5072180;28;20116;-82
2021/10/06 12:41:57;;;;;;;28.45;5.68;;;435.90;2048.00;;;;;;5073632;28;20025;-80
2021/10/06 12:44:25;;;;;;;25.63;6.50;;;435.90;2048.00;;;;;;5073847;28;20021;-78
2021/10/06 12:46:53;;;;;;;37.90;7.38;;;435.90;2048.00;;;;;;5072626;28;20404;-83
2021/10/06 12:49:20;;;;;;;22.50;7.47;;;435.90;2048.00;;;;;;5073800;28;20020;-76
2021/10/06 12:51:54;;;;;;;18.83;7.68;;;435.80;2048.00;;;;;;5073722;28;20020;-83
2021/10/06 12:54:23;;;;;;;27.10;6.78;;;435.90;2048.00;;;;;;5088139;28;20599;-78
2021/10/06 12:56:54;;;;;;;19.30;8.43;;;435.80;2022.40;;;;;;5072461;28;20056;-84
2021/10/06 12:59:37;;;;;;;14.68;5.95;;;435.60;2022.40;;;;;;5072019;28;20017;-80
2021/10/06 13:02:08;;;;;;;29.63;6.70;;;435.50;2048.00;;;;;;5073081;28;20024;-81
2021/10/06 13:04:36;;;;;;;21.50;5.60;;;435.50;2073.60;;;;;;5073346;28;20032;-77
2021/10/06 13:07:04;;;;;;;17.65;6.22;;;435.50;2099.20;;;;;;5072838;28;20029;-79
2021/10/06 13:09:30;;;;;;;13.98;4.97;;;435.30;2124.80;;;;;;5073280;28;20479;-77
2021/10/06 13:11:58;;;;;;;13.73;5.90;;;435.30;2124.80;;;;;;5072092;28;20028;-83
2021/10/06 13:14:25;;;;;;;20.38;7.90;;;435.30;2150.40;;;;;;5089465;28;20029;-84
2021/10/06 13:16:51;;;;;;;18.85;5.68;;;435.30;2150.40;;;;;;5072338;28;20047;-83
2021/10/06 13:19:17;;;;;;;38.00;8.57;;;435.40;2150.40;;;;;;5073129;28;20125;-82
2021/10/06 13:21:47;;;;;;;20.45;7.57;;;435.30;2150.40;;;;;;5073147;28;20024;-79
2021/10/06 13:24:14;;;;;;;16.40;7.32;;;435.30;2176.00;;;;;;5088283;28;20028;-79
2021/10/06 13:26:45;;;;;;;12.82;6.40;;;435.30;2176.00;;;;;;5072783;28;20020;-80
2021/10/06 13:29:11;;;;;;;16.35;6.68;;;435.50;2227.20;;;;;;5072442;28;20476;-78
2021/10/06 13:31:36;;;;;;;21.48;7.15;;;410.50;2252.80;;;;;;5071468;28;20107;-78
2021/10/06 13:34:02;;;;;;;17.30;5.90;;;435.20;2278.40;;;;;;5072170;28;20093;-79
2021/10/06 13:36:28;;;;;;;21.10;6.47;;;435.20;2278.40;;;;;;5072606;28;20477;-78
2021/10/06 13:38:54;;;;;;;20.35;6.40;;;435.30;2278.40;;;;;;5070950;28;20036;-75
2021/10/06 13:41:19;;;;;;;13.77;5.07;;;435.30;2227.20;;;;;;5072351;28;20048;-78
2021/10/06 13:43:45;;;;;;;22.52;6.25;;;435.40;2201.60;;;;;;5072508;28;20025;-75
2021/10/06 13:46:11;;;;;;;13.55;6.03;;;435.50;2176.00;;;;;;5071287;28;20055;-78
2021/10/06 13:48:40;;;;;;;16.02;5.63;;;435.60;2150.40;;;;;;5072090;28;20100;-77
2021/10/06 13:51:08;;;;;;;12.35;5.60;;;435.80;2176.00;;;;;;5072009;28;20028;-80
2021/10/06 13:53:34;;;;;;;18.73;5.80;;;435.80;2176.00;;;;;;5069986;28;20477;-78
2021/10/06 13:56:00;;;;;;;27.23;6.93;;;435.90;2150.40;;;;;;5061341;28;20028;-79
2021/10/06 13:58:26;;;;;;;18.48;5.53;;;435.90;2099.20;;;;;;5053014;28;20203;-78
2021/10/06 14:00:52;;;;;;;12.82;5.25;;;436.00;2073.60;;;;;;5071165;28;20040;-79
2021/10/06 14:03:19;;;;;;;12.80;5.93;;;436.10;2048.00;;;;;;5069838;28;20020;-77
2021/10/06 14:05:45;;;;;;;24.20;6.53;;;436.10;2048.00;;;;;;5069549;28;20044;-79
2021/10/06 14:28:52;;;;;;;15.02;5.00;;;436.10;1971.20;;;;;;5126305;23;20064;-81
2021/10/06 14:31:18;;;;;;;20.27;5.97;;;436.10;1971.20;;;;;;5028674;28;20248;-77
2021/10/06 14:33:44;;;;;;;21.45;4.72;;;436.10;1996.80;;;;;;5030112;28;20025;-76
2021/10/06 14:36:10;;;;;;;18.67;5.13;;;436.10;1971.20;;;;;;5014028;28;20037;-81
2021/10/06 14:38:36;;;;;;;9.55;4.65;;;436.10;1996.80;;;;;;5032103;28;20033;-82
2021/10/06 14:41:02;;;;;;;18.58;5.53;;;436.00;1971.20;;;;;;5031495;28;20501;-84
2021/10/06 14:43:28;;;;;;;15.90;4.80;;;436.10;1971.20;;;;;;5022449;28;20043;-84
2021/10/06 14:45:55;;;;;;;12.77;4.40;;;436.00;1971.20;;;;;;5034189;28;20049;-76
2021/10/06 14:48:21;;;;;;;13.40;4.57;;;435.90;1971.20;;;;;;5052462;28;20021;-82
2021/10/06 14:50:46;;;;;;;14.20;4.30;;;435.90;1971.20;;;;;;5033702;28;20509;-78
2021/10/06 14:53:12;;;;;;;14.77;5.55;;;435.90;1971.20;;;;;;5050505;28;20036;-79
2021/10/06 14:55:38;;;;;;;20.70;5.57;;;435.90;1971.20;;;;;;5033986;28;20116;-86
2021/10/06 14:58:05;;;;;;;13.48;5.15;;;436.00;1971.20;;;;;;5051782;28;20043;-79
2021/10/06 15:00:31;;;;;;;14.63;4.40;;;436.00;1971.20;;;;;;5030700;28;20037;-81
2021/10/06 15:02:57;;;;;;;10.73;5.05;;;436.00;1971.20;;;;;;5017585;28;20044;-78
2021/10/06 15:05:23;;;;;;;16.25;4.82;;;436.00;1971.20;;;;;;5017189;28;20475;-79
2021/10/06 15:07:49;;;;;;;10.75;4.50;;;436.10;1971.20;;;;;;5032462;28;20041;-78
2021/10/06 15:10:15;;;;;;;15.57;5.05;;;436.10;1971.20;;;;;;5017913;28;20037;-81
2021/10/06 15:12:42;;;;;;;14.13;5.25;;;436.10;1971.20;;;;;;5017673;28;20064;-82
2021/10/06 15:15:08;;;;;;;17.25;5.03;;;436.10;1971.20;;;;;;5017291;28;20128;-83
2021/10/06 15:17:34;;;;;;;15.88;5.07;;;436.10;1971.20;;;;;;5017920;28;20026;-82
2021/10/06 15:19:59;;;;;;;15.85;4.88;;;436.10;1971.20;;;;;;5017523;28;20060;-82
2021/10/06 15:22:25;;;;;;;8.80;5.80;;;436.00;1971.20;;;;;;5035498;28;20021;-83
2021/10/06 15:24:52;;;;;;;9.52;4.20;;;436.10;1971.20;;;;;;5035051;28;20076;-79
2021/10/06 15:27:17;;;;;;;10.23;4.88;;;436.10;1996.80;;;;;;5017027;28;20038;-78
2021/10/06 15:29:46;;;;;;;18.13;4.30;;;436.10;1996.80;;;;;;5016940;28;20044;-78
2021/10/06 15:32:11;;;;;;;9.02;4.40;;;436.00;1996.80;;;;;;5017611;28;20033;-84
2021/10/06 15:34:37;;;;;;;12.27;4.82;;;435.90;1996.80;;;;;;5044093;28;20041;-84
2021/10/06 15:37:04;;;;;;;16.02;4.85;;;435.90;1996.80;;;;;;5054751;28;20056;-79
2021/10/06 15:39:30;;;;;;;8.07;4.30;;;435.80;1996.80;;;;;;5036975;28;20417;-81
2021/10/06 15:41:59;;;;;;;8.40;4.75;;;435.80;1996.80;;;;;;5053291;28;20124;-79
2021/10/06 15:44:25;;;;;;;13.48;4.85;;;435.80;1996.80;;;;;;5052644;28;20033;-82
2021/10/06 15:46:51;;;;;;;13.52;4.85;;;435.80;1996.80;;;;;;5015894;28;20438;-81
2021/10/06 15:49:17;;;;;;;15.63;5.55;;;435.80;1996.80;;;;;;5017477;28;20025;-79
2021/10/06 15:51:43;;;;;;;8.85;5.07;;;435.80;1996.80;;;;;;5017141;28;20021;-84
2021/10/06 15:54:12;;;;;;;9.38;5.03;;;435.80;1996.80;;;;;;5016961;28;20063;-77
2021/10/06 15:56:40;;;;;;;10.88;4.55;;;435.80;1996.80;;;;;;5016096;28;20479;-83
2021/10/06 15:59:07;;;;;;;7.93;4.10;;;435.80;1996.80;;;;;;5007183;28;20022;-81
2021/10/06 16:01:33;;;;;;;12.65;4.40;;;435.80;1996.80;;;;;;5031431;28;20471;-78
2021/10/06 16:04:00;;;;;;;14.25;4.32;;;435.80;1996.80;;;;;;5034516;28;20529;-80
2021/10/06 16:06:26;;;;;;;12.57;4.53;;;436.10;1996.80;;;;;;5016877;28;20713;-83
2021/10/06 16:08:52;;;;;;;15.77;5.28;;;435.70;1996.80;;;;;;5016645;28;20129;-81
2021/10/06 16:11:17;;;;;;;12.15;4.40;;;435.60;1996.80;;;;;;5016437;28;20040;-82
2021/10/06 16:13:43;;;;;;;11.80;4.80;;;435.50;1996.80;;;;;;5016726;28;20022;-77
2021/10/06 16:16:09;;;;;;;18.13;5.22;;;435.60;2022.40;;;;;;5016864;28;20107;-78
2021/10/06 16:18:35;;;;;;;11.73;5.43;;;435.60;2022.40;;;;;;5016630;28;20371;-82
2021/10/06 16:21:00;;;;;;;13.65;4.85;;;435.50;2022.40;;;;;;5016426;28;20033;-78
2021/10/06 16:23:26;;;;;;;10.75;4.32;;;435.50;2022.40;;;;;;5015778;28;20057;-83
2021/10/06 16:25:52;;;;;;;9.75;4.47;;;435.50;2022.40;;;;;;5016363;28;20061;-80
2021/10/06 16:28:18;;;;;;;9.55;4.40;;;435.50;2048.00;;;;;;5016110;28;20057;-79
2021/10/06 16:30:43;;;;;;;10.00;4.72;;;435.50;2048.00;;;;;;5033866;28;20026;-81
2021/10/06 16:33:12;;;;;;;11.30;4.47;;;435.50;2048.00;;;;;;5016585;28;20038;-78
2021/10/06 16:35:38;;;;;;;12.32;4.22;;;435.50;2048.00;;;;;;5035255;28;20045;-83
2021/10/06 16:38:03;;;;;;;17.08;4.18;;;435.50;2022.40;;;;;;5053759;28;20025;-78
2021/10/06 16:40:29;;;;;;;11.15;4.68;;;435.50;2048.00;;;;;;5053677;28;20493;-77
2021/10/06 16:42:56;;;;;;;8.18;4.15;;;435.50;2022.40;;;;;;5035719;28;20067;-83
2021/10/06 16:45:22;;;;;;;13.50;3.95;;;435.40;2022.40;;;;;;5035686;28;20044;-84
2021/10/06 16:47:48;;;;;;;11.05;4.22;;;435.50;2022.40;;;;;;5053812;28;20025;-85
2021/10/06 16:50:14;;;;;;;17.38;4.63;;;435.50;2022.40;;;;;;5030479;28;20021;-78
2021/10/06 16:52:40;;;;;;;17.42;4.57;;;435.50;2022.40;;;;;;5021205;28;20072;-82
2021/10/06 16:55:06;;;;;;;12.93;4.78;;;435.50;2022.40;;;;;;5015008;28;20041;-82
2021/10/06 16:57:32;;;;;;;15.80;4.28;;;435.50;2022.40;;;;;;5015186;28;20049;-84
2021/10/06 16:59:58;;;;;;;13.02;3.80;;;435.40;2022.40;;;;;;5034135;28;20032;-79
2021/10/06 17:02:24;;;;;;;12.25;4.05;;;435.40;2022.40;;;;;;5015883;28;20418;-79